South Lyme, CT (06376)

4:04 AM EDT on July 08, 2015 (GMT -0400)
Giant's Neck Heights | | Change Station
CLOSE
Current Station
Personal Weather Station
Location: Niantic, CT
Elevation: 89 ft
Nearby Weather Stations

Elev 89 ft 41.31 °N, 72.23 °W | Updated 1 minute ago

Overcast
Overcast
72.2 °F
Feels Like 72.2 °F
N
0.0
Wind Variable Wind from West
Gusts 0.0 mph

Today
High -- | Low -- °F
--% Chance of Precip.
Yesterday
High -- | Low -- °F
Precip. -- in
5:23 AM 8:24 PM
Waning Gibbous, 56% visible
Pressure 29.93 in
Visibility 0.5 miles
Clouds
Dew Point 71 °F
Humidity 96%
Rainfall 0.00 in
Snow Depth Not available.
UV Not available.
Pollen 2.90 out of 12
Air Quality Not available.
Flu Activity Not available.
METAR KGON 080756Z AUTO 17003KT 1/2SM R05/4500VP6000FT FG VV003 19/19 A2992 RMK AO2 SLP133 T01940189

More Conditions Fewer Conditions

Pressure 29.93 in
Visibility 0.5 miles
Clouds
Dew Point 71 °F
Humidity 96%
Rainfall 0.00 in
Snow Depth Not available.
UV Not available.
Pollen 2.90 out of 12
Air Quality Not available.
Flu Activity Not available.
METAR KGON 080756Z AUTO 17003KT 1/2SM R05/4500VP6000FT FG VV003 19/19 A2992 RMK AO2 SLP133 T01940189

More Conditions Fewer Conditions

10-Day Weather Forecast

×

Almanac

Astronomy

Jul. 08, 2015 Rise Set
Actual Time
Civil Twilight
Nautical Twilight
Astronomical Twilight
Moon
Length of Visible Light
Length of Day
Tomorrow will be .
, % of the Moon is Illuminated

Today's Extremes

State Highs State Lows

Community

WunderPhotos

Upload Photos

1,836,064 photos uploaded!

WunderBlogs® & News

Nearby

Air Quality

  Air Quality AQ Index Pollutant
Not available.

Snow Depth

Station Depth Elevation

Earthquake Activity

City Distance Mag. Time & Date
Minimum magnitude displayed is 2.5.

Coastal Water Temperatures

Place Temperature

Stations

Nearby Weather Stations

Station Location Temp. Windchill Dew Point Humidity Wind Precip. Elev Updated Type